KEGI/EGI METAR and TAF weather

Enter ICAO airport designator
Station Type Date Time Source
KEGI METAR 2019/12/05 14:56 UTC NOAA

KEGI 051456Z AUTO 00000KT 10SM CLR 12/04 A3016 RMK AO2 SLP215 T01170037 52023 $


Station Type Date Time Source
KEGI Decoded METAR 2019/12/05 14:56 UTC NOAA

Duke Field / Eglin Auxiliary, FL, United States (KEGI) 30-39N 086-31W
Dec 05, 2019 - 09:56 AM EST / 2019.12.05 1456 UTC
Wind: Calm:0
Visibility: 10 mile(s):0
Sky conditions: clear
Temperature: 53.1 F (11.7 C)
Dew Point: 38.7 F (3.7 C)
Relative Humidity: 57%
Pressure (altimeter): 30.16 in. Hg (1021 hPa)
Pressure tendency: 0.07 inches (2.3 hPa) higher than three hours ago
ob: KEGI 051456Z AUTO 00000KT 10SM CLR 12/04 A3016 RMK AO2 SLP215 T01170037 52023
cycle: 15

Station Type Date Time Source
KEGI TAF 2019/12/05 13:13 UTC NOAA

TAF
AMD KEGI 051300Z 0513/0616 35005KT 9999 FEW250 QNH3005INS WND 04006KT AFT 0516
BECMG 0518/0519 14006KT 9999 FEW120 SCT250 QNH3010INS
BECMG 0608/0609 12006KT 9999 FEW030 BKN180 QNH3012INS
BECMG 0614/0615 16008KT 9999 BKN030 BKN150 QNH3015INS TX19/0520Z TN02/0513Z

Example: see airport list